In Rescue
 
Open Full Screen Window  High Contrast Mode
Wind Gusting 00 knots
09
March 31, 2020 3:49 PM EDT
Weather Information
Wind Direction
  070 °
Wind Speed
  09 kt (10 mph)
Wind Gust
  00 kt (0 mph)
Altimeter
30.08 in
Visibility
10 SM
Temperature
03° C
37° F
Dewpoint
02° C
36° F
Humidity
93%
Sky Condition
Overcast @ 1,200 ft
MVFR

METAR KMGN 311949Z AUTO 07009KT 10SM OVC012 03/02 A3008 RMK AO2 T00380026

FAA Disclaimer: The data displayed is for advisory purposes only and is not to be used for flight planning or operations.